KEAT/EAT METAR and TAF weather

Enter ICAO airport designator
Station Type Date Time Source
KEAT METAR 2018/01/23 00:55 UTC NOAA

KEAT 230055Z AUTO 00000KT 10SM FEW060 04/M01 A3021 RMK AO2 SLP242 T00441006


Station Type Date Time Source
KEAT Decoded METAR 2018/01/23 00:55 UTC NOAA

WENATCHEE PANGBORN MEMO, WA, United States (KEAT) 47-24N 120-12W 377M
Jan 22, 2018 - 07:55 PM EST / 2018.01.23 0055 UTC
Wind: Calm:0
Visibility: 10 mile(s):0
Sky conditions: mostly clear
Temperature: 39.9 F (4.4 C)
Dew Point: 30.9 F (-0.6 C)
Relative Humidity: 69%
Pressure (altimeter): 30.21 in. Hg (1023 hPa)
ob: KEAT 230055Z AUTO 00000KT 10SM FEW060 04/M01 A3021 RMK AO2 SLP242 T00441006
cycle: 1

Station Type Date Time Source
KEAT TAF 2018/01/22 18:42 UTC NOAA

TAF KEAT 221739Z 2218/2318 31005KT P6SM SCT060 BKN100
FM221900 28006KT P6SM FEW060 SCT200
FM230700 12004KT P6SM OVC150


Example: see airport list